TimeCST,TemperatureF,Dew PointF,Humidity,Sea Level PressureIn,VisibilityMPH,Wind Direction,Wind SpeedMPH,Gust SpeedMPH,PrecipitationIn,Events,Conditions,WindDirDegrees,DateUTC
12:52 AM,30.0,23.0,75,29.99,9.0,Calm,Calm,-,N/A,,Overcast,0,2012-12-28 06:52:00
1:52 AM,28.9,23.0,78,29.99,9.0,Calm,Calm,-,N/A,,Overcast,0,2012-12-28 07:52:00
2:52 AM,28.9,23.0,78,30.01,9.0,Variable,3.5,-,N/A,,Overcast,0,2012-12-28 08:52:00
3:52 AM,28.0,21.9,78,30.01,9.0,West,3.5,-,N/A,,Overcast,280,2012-12-28 09:52:00
4:52 AM,28.0,21.9,78,30.02,9.0,Variable,4.6,-,N/A,,Overcast,0,2012-12-28 10:52:00
5:27 AM,26.6,21.2,80,29.98,8.0,NW,3.5,-,N/A,,Overcast,320,2012-12-28 11:27:00
5:52 AM,28.0,21.9,78,30.03,8.0,Variable,3.5,-,N/A,,Overcast,0,2012-12-28 11:52:00
6:15 AM,28.4,21.2,74,30.00,8.0,NW,3.5,-,N/A,,Overcast,320,2012-12-28 12:15:00
6:52 AM,27.0,21.9,81,30.03,7.0,NW,5.8,-,N/A,,Overcast,320,2012-12-28 12:52:00
7:52 AM,26.6,21.2,80,30.00,8.0,NNW,4.6,-,N/A,,Overcast,330,2012-12-28 13:52:00
8:52 AM,27.0,21.0,78,30.04,6.0,NNW,5.8,-,N/A,,Haze,330,2012-12-28 14:52:00
9:52 AM,27.0,19.9,75,30.06,5.0,NW,8.1,-,N/A,,Haze,320,2012-12-28 15:52:00
10:52 AM,28.0,19.0,69,30.08,6.0,NNW,6.9,-,N/A,,Haze,340,2012-12-28 16:52:00
11:52 AM,28.4,17.6,64,30.02,8.0,NW,8.1,-,N/A,,Overcast,320,2012-12-28 17:52:00
12:52 PM,28.9,15.1,56,30.05,10.0,NW,4.6,-,N/A,,Overcast,310,2012-12-28 18:52:00
1:52 PM,28.0,14.0,56,30.04,10.0,NW,6.9,-,N/A,,Overcast,310,2012-12-28 19:52:00
2:52 PM,28.0,15.1,58,30.04,10.0,Variable,5.8,-,N/A,,Overcast,0,2012-12-28 20:52:00
3:52 PM,28.0,14.0,56,30.06,10.0,NW,6.9,-,N/A,,Scattered Clouds,310,2012-12-28 21:52:00
4:52 PM,26.1,12.9,58,30.08,10.0,NW,5.8,-,N/A,,Scattered Clouds,320,2012-12-28 22:52:00
5:52 PM,23.0,12.0,63,30.11,10.0,Variable,6.9,-,N/A,,Partly Cloudy,0,2012-12-28 23:52:00
6:33 PM,21.2,12.2,68,30.07,10.0,NW,4.6,-,N/A,,Mostly Cloudy,320,2012-12-29 00:33:00
6:52 PM,21.0,12.0,68,30.13,10.0,NW,8.1,-,N/A,,Scattered Clouds,320,2012-12-29 00:52:00
7:52 PM,19.0,12.0,74,30.15,10.0,Variable,4.6,-,N/A,,Clear,0,2012-12-29 01:52:00
8:52 PM,18.0,12.0,78,30.15,10.0,Variable,3.5,-,N/A,,Partly Cloudy,0,2012-12-29 02:52:00
9:52 PM,17.1,10.9,77,30.17,9.0,NW,3.5,-,N/A,,Clear,320,2012-12-29 03:52:00
10:52 PM,18.0,12.0,78,30.18,9.0,WNW,3.5,-,N/A,,Clear,290,2012-12-29 04:52:00
11:18 PM,17.6,12.2,79,30.14,9.0,Calm,Calm,-,N/A,,Mostly Cloudy,0,2012-12-29 05:18:00
11:52 PM,19.9,12.9,74,30.19,10.0,NNW,6.9,-,N/A,,Overcast,340,2012-12-29 05:52:00